Athboy, South Dakota
Current Conditions -  °F | °C
As of 5:53 AM on Saturday 01 Nov 2014 (Local Time) from KHEI Reporting Station
Clear Clear  
Wind Chill: 26°   Ceiling: Unl
Heat Index: 32°   Visibility: 10mi
Dew Point: 19°   Wind: 7mph
Humidity: 59%   Direction: 130°SE
Pressure: 29.84"   Gusts: NA
Location:  45.2919°N, 102.298°W
Report Text: KHEI 011153Z AUTO 13006KT 10SM CLR 00/M07 A2984 RMK AO2 SLP124 T00001072 10022 20000 56008
Loading
Personal Weather Stations






























Interactive Weather Map
Tropical Storm Tracking
New forecast layout! Learn more

10-Day Weather Forecast

Advertisements
Track Severe Weather on mobile